Terminal Aerodrome Forecast
Issued by NWS Midland/Odessa, TX

Home | Current Version | Previous Version | Text Only | Print | Product List | Glossary On
Versions: 1 2 3 4 5 6 7 8 9 10 11 12 13 14 15 16 17 18 19
000
FTUS44 KMAF 301300 AAA
TAFMAF
TAF AMD
KMAF 301304Z 3013/3112 18011KT P6SM SCT100 BKN250
     FM301500 20014G23KT P6SM SCT060 SCT250
     FM302200 36010KT P6SM BKN060 OVC250 PROB30 3022/3103 TSRA
      BKN050CB
     FM310300 03012KT P6SM BKN100=

USA.gov is the U.S. government's official web portal to all federal, state and local government web resources and services.